Time;durP1;ratioP1;P1;durP2;ratioP2;P2;SDS_P1;SDS_P2;PMS_P1;PMS_P2;Temp;Humidity;BMP_temperature;BMP_pressure;BME280_temperature;BME280_humidity;BME280_pressure;Samples;Min_cycle;Max_cycle;Signal;HPM_P1;HPM_P2
2023/01/12 00:00:35;;;;;;;27.58;8.15;;;7.20;99.90;;;;;;5071915;28;20041;-79
2023/01/12 00:03:01;;;;;;;31.42;7.30;;;7.20;99.90;;;;;;5098473;28;20101;-79
2023/01/12 00:05:27;;;;;;;26.02;6.75;;;7.20;99.90;;;;;;5077228;28;20446;-79
2023/01/12 00:07:52;;;;;;;29.73;7.55;;;7.20;99.90;;;;;;5099562;28;20092;-79
2023/01/12 00:10:18;;;;;;;27.08;6.90;;;7.10;99.90;;;;;;5086539;28;20021;-77
2023/01/12 00:12:44;;;;;;;32.22;6.60;;;7.10;99.90;;;;;;5076011;28;20052;-77
2023/01/12 00:15:10;;;;;;;33.45;8.93;;;7.10;99.90;;;;;;5089261;28;20031;-77
2023/01/12 00:17:36;;;;;;;26.27;7.43;;;7.00;99.90;;;;;;5076240;28;20036;-77
2023/01/12 00:20:03;;;;;;;27.85;8.23;;;6.90;99.90;;;;;;5079920;28;20035;-78
2023/01/12 00:22:29;;;;;;;29.92;7.28;;;6.90;99.90;;;;;;5093718;28;20031;-77
2023/01/12 00:24:54;;;;;;;29.30;7.03;;;6.80;99.90;;;;;;5092791;28;20487;-77
2023/01/12 00:27:21;;;;;;;28.13;8.77;;;6.90;99.90;;;;;;5094381;28;20031;-77
2023/01/12 00:29:48;;;;;;;28.98;6.97;;;6.90;99.90;;;;;;5077343;28;20047;-77
2023/01/12 00:32:16;;;;;;;28.00;7.10;;;6.90;99.90;;;;;;5095595;28;20036;-77
2023/01/12 00:34:42;;;;;;;21.80;6.68;;;6.90;99.90;;;;;;5078135;28;20043;-78
2023/01/12 00:37:08;;;;;;;28.15;6.93;;;6.90;99.90;;;;;;5097101;28;20043;-77
2023/01/12 00:39:35;;;;;;;16.65;6.72;;;7.00;99.90;;;;;;5094506;28;20020;-77
2023/01/12 00:47:33;;;;;;;44.83;8.13;;;7.00;99.90;;;;;;5093601;28;20696;-79
2023/01/12 00:49:58;;;;;;;27.05;6.28;;;7.00;99.90;;;;;;5086552;28;20468;-79
2023/01/12 00:52:24;;;;;;;21.63;6.93;;;6.80;99.90;;;;;;5094396;28;20054;-79
2023/01/12 00:54:50;;;;;;;26.10;7.13;;;6.70;99.90;;;;;;5085962;28;20020;-79
2023/01/12 00:57:18;;;;;;;31.55;7.40;;;6.60;99.90;;;;;;5094520;28;20063;-79
2023/01/12 00:59:43;;;;;;;28.27;6.65;;;6.50;99.90;;;;;;5090880;28;20027;-79
2023/01/12 01:02:10;;;;;;;19.35;6.43;;;6.50;99.90;;;;;;5092608;28;20036;-79
2023/01/12 01:04:36;;;;;;;26.08;7.68;;;6.50;99.90;;;;;;5092495;28;20052;-79
2023/01/12 01:07:02;;;;;;;28.95;7.05;;;6.50;99.90;;;;;;5093622;28;20043;-79
2023/01/12 01:09:28;;;;;;;33.83;8.10;;;6.50;99.90;;;;;;5078109;28;20024;-79
2023/01/12 01:11:54;;;;;;;27.98;6.47;;;6.60;99.90;;;;;;5094303;28;20044;-79
2023/01/12 01:14:20;;;;;;;30.65;6.82;;;6.60;99.90;;;;;;5090560;28;20472;-78
2023/01/12 01:16:46;;;;;;;23.50;6.85;;;6.70;99.90;;;;;;5080600;28;20017;-79
2023/01/12 01:19:12;;;;;;;33.33;7.75;;;6.50;99.90;;;;;;5092413;28;20037;-79
2023/01/12 01:21:38;;;;;;;32.97;7.00;;;6.40;99.90;;;;;;5098379;28;20488;-78
2023/01/12 01:24:04;;;;;;;26.80;7.70;;;6.30;99.90;;;;;;5092201;28;20032;-79
2023/01/12 01:26:30;;;;;;;22.15;7.70;;;6.30;99.90;;;;;;5092489;28;20020;-78
2023/01/12 01:28:56;;;;;;;25.90;7.32;;;6.30;99.90;;;;;;5092022;28;20442;-79
2023/01/12 01:31:23;;;;;;;29.38;8.13;;;6.30;99.90;;;;;;5092576;28;20019;-79
2023/01/12 01:33:49;;;;;;;23.42;6.60;;;6.30;99.90;;;;;;5092952;28;20021;-78
2023/01/12 01:36:16;;;;;;;30.67;6.85;;;6.20;99.90;;;;;;5093801;28;20103;-79
2023/01/12 01:38:43;;;;;;;38.08;7.45;;;6.30;99.90;;;;;;5094358;28;20020;-78
2023/01/12 01:41:20;;;;;;;36.50;7.35;;;6.50;99.90;;;;;;5079515;28;20028;-78
2023/01/12 01:43:48;;;;;;;34.03;6.43;;;6.50;99.90;;;;;;5095571;28;20081;-78
2023/01/12 01:46:18;;;;;;;29.02;6.68;;;6.60;99.90;;;;;;5080000;28;20024;-79
2023/01/12 01:48:44;;;;;;;34.40;7.18;;;6.70;99.90;;;;;;5077643;28;20077;-79
2023/01/12 01:51:14;;;;;;;36.42;6.15;;;6.80;99.90;;;;;;5089516;28;20057;-79
2023/01/12 01:53:43;;;;;;;;;;;6.80;99.90;;;;;;5094905;28;20027;-78
2023/01/12 01:56:19;;;;;;;21.45;7.00;;;6.90;99.90;;;;;;5087636;28;19908;-78
2023/01/12 01:59:00;;;;;;;30.33;6.70;;;6.80;99.90;;;;;;5095569;28;20450;-78
2023/01/12 02:01:26;;;;;;;24.20;7.63;;;6.60;99.90;;;;;;5073282;28;20024;-78
2023/01/12 02:03:54;;;;;;;32.75;6.88;;;6.60;99.90;;;;;;5090371;28;20077;-78
2023/01/12 02:06:23;;;;;;;38.38;6.65;;;6.70;99.90;;;;;;5082417;28;20051;-78
2023/01/12 02:08:57;;;;;;;23.58;6.75;;;6.60;99.90;;;;;;5091629;28;20028;-78
2023/01/12 02:16:56;;;;;;;33.35;7.78;;;6.20;99.90;;;;;;5090269;28;20035;-78
2023/01/12 02:19:59;;;;;;;31.88;8.20;;;6.10;99.90;;;;;;5092693;28;20399;-78
2023/01/12 02:22:40;;;;;;;28.35;7.45;;;6.00;99.90;;;;;;5073628;28;20047;-78
2023/01/12 02:25:35;;;;;;;24.90;5.70;;;6.00;99.90;;;;;;5089743;28;20035;-79
2023/01/12 02:28:30;;;;;;;26.10;6.03;;;6.00;99.90;;;;;;5092194;28;20499;-78
2023/01/12 02:31:24;;;;;;;27.13;6.25;;;5.90;99.90;;;;;;5088190;28;20024;-78
2023/01/12 02:33:49;;;;;;;14.82;5.07;;;5.70;99.90;;;;;;5093154;28;20044;-78
2023/01/12 02:36:47;;;;;;;19.13;6.50;;;5.70;99.90;;;;;;5078811;28;20024;-78
2023/01/12 02:39:23;;;;;;;12.82;4.88;;;5.50;99.90;;;;;;5077665;28;20457;-78
2023/01/12 02:45:14;;;;;;;15.45;6.45;;;5.40;99.90;;;;;;5084037;28;20522;-78
2023/01/12 02:47:56;;;;;;;23.88;6.55;;;5.40;99.90;;;;;;5094657;28;20039;-78
2023/01/12 02:50:48;;;;;;;33.10;6.78;;;5.30;99.90;;;;;;5080897;28;20024;-78
2023/01/12 02:53:41;;;;;;;22.52;6.55;;;5.40;99.90;;;;;;5093995;28;20024;-78
2023/01/12 02:56:09;;;;;;;30.35;6.03;;;5.40;99.90;;;;;;5093207;28;20154;-78
2023/01/12 02:58:39;;;;;;;18.63;5.85;;;5.30;99.90;;;;;;5092496;28;20025;-78
2023/01/12 03:01:08;;;;;;;22.60;6.10;;;5.30;99.90;;;;;;5089733;28;20082;-78
2023/01/12 03:03:38;;;;;;;28.52;6.20;;;5.30;99.90;;;;;;5092388;28;20143;-76
2023/01/12 03:06:05;;;;;;;28.48;7.55;;;5.20;99.90;;;;;;5080800;28;20361;-76
2023/01/12 03:08:33;;;;;;;19.17;5.88;;;5.20;99.90;;;;;;5092905;28;20040;-78
2023/01/12 03:11:10;;;;;;;33.63;7.68;;;5.10;99.90;;;;;;5081147;28;20020;-78
2023/01/12 03:13:41;;;;;;;25.95;6.80;;;5.10;99.90;;;;;;5074121;28;20068;-78
2023/01/12 03:16:08;;;;;;;;;;;5.10;99.90;;;;;;5082839;28;20039;-77
2023/01/12 03:18:43;;;;;;;24.67;5.63;;;5.10;99.90;;;;;;5076582;28;19912;-77
2023/01/12 03:21:13;;;;;;;21.65;5.90;;;5.10;99.90;;;;;;5095112;28;20031;-78
2023/01/12 03:23:46;;;;;;;29.42;6.47;;;5.00;99.90;;;;;;5091062;28;20020;-78
2023/01/12 03:26:14;;;;;;;29.90;7.90;;;5.00;99.90;;;;;;5090052;28;20036;-78
2023/01/12 03:28:44;;;;;;;30.35;7.05;;;5.00;99.90;;;;;;5092448;28;20048;-78
2023/01/12 03:31:12;;;;;;;25.27;6.10;;;5.10;99.90;;;;;;5072646;28;20024;-76
2023/01/12 03:33:43;;;;;;;27.13;6.00;;;5.20;99.90;;;;;;5092635;28;20051;-78
2023/01/12 03:36:18;;;;;;;;;;;5.20;99.90;;;;;;5091685;28;20089;-78
2023/01/12 03:39:10;;;;;;;28.13;7.45;;;5.20;99.90;;;;;;5093113;28;19908;-78
2023/01/12 03:41:39;;;;;;;25.85;5.90;;;5.10;99.90;;;;;;5071803;28;20126;-78
2023/01/12 03:44:11;;;;;;;21.75;6.00;;;5.10;99.90;;;;;;5092325;28;20560;-77
2023/01/12 03:46:45;;;;;;;29.52;5.90;;;5.10;99.90;;;;;;5071933;28;20545;-78
2023/01/12 03:49:35;;;;;;;20.85;5.78;;;5.00;99.90;;;;;;5090093;28;20020;-78
2023/01/12 03:52:03;;;;;;;20.42;7.07;;;5.00;99.90;;;;;;5073076;28;20495;-78
2023/01/12 03:54:30;;;;;;;23.88;6.10;;;4.90;99.90;;;;;;5071721;28;20023;-78
2023/01/12 03:56:56;;;;;;;24.58;5.93;;;4.90;99.90;;;;;;5092231;28;20059;-78
2023/01/12 03:59:23;;;;;;;18.38;5.93;;;4.90;99.90;;;;;;5075579;28;20044;-78
2023/01/12 04:01:50;;;;;;;21.77;5.80;;;4.90;99.90;;;;;;5096974;28;20020;-78
2023/01/12 04:04:16;;;;;;;25.45;6.38;;;4.80;99.90;;;;;;5073572;28;20123;-78
2023/01/12 04:06:41;;;;;;;19.58;6.35;;;4.80;99.90;;;;;;5078937;28;20503;-77
2023/01/12 04:09:07;;;;;;;20.05;6.20;;;4.80;99.90;;;;;;5091700;28;20396;-78
2023/01/12 04:14:17;;;;;;;20.38;6.63;;;4.60;99.90;;;;;;5092033;28;20039;-78
2023/01/12 04:16:43;;;;;;;29.13;6.47;;;4.60;99.90;;;;;;5093339;28;20016;-78
2023/01/12 04:19:08;;;;;;;24.65;5.95;;;4.50;99.90;;;;;;5095091;28;20024;-77
2023/01/12 04:24:18;;;;;;;19.48;5.95;;;4.60;99.90;;;;;;5093534;28;20043;-78
2023/01/12 04:26:45;;;;;;;16.35;5.95;;;4.70;99.90;;;;;;5094903;28;20044;-78
2023/01/12 04:29:10;;;;;;;22.25;6.40;;;4.70;99.90;;;;;;5092315;28;20128;-78
2023/01/12 04:31:37;;;;;;;17.55;5.55;;;4.80;99.90;;;;;;5095476;28;20517;-78
2023/01/12 04:34:03;;;;;;;14.23;5.20;;;4.70;99.90;;;;;;5094191;28;20028;-78
2023/01/12 04:36:29;;;;;;;15.50;6.28;;;4.70;99.90;;;;;;5078005;28;20103;-77
2023/01/12 04:38:55;;;;;;;19.50;6.22;;;4.60;99.90;;;;;;5080576;28;20044;-78
2023/01/12 04:41:20;;;;;;;14.23;5.50;;;4.60;99.90;;;;;;5097385;28;20027;-78
2023/01/12 04:43:46;;;;;;;28.13;5.60;;;4.50;99.90;;;;;;5097755;28;20091;-77
2023/01/12 04:46:12;;;;;;;24.50;6.15;;;4.50;99.90;;;;;;5090066;28;20024;-78
2023/01/12 04:48:39;;;;;;;20.92;6.40;;;4.40;99.90;;;;;;5095492;28;20029;-75
2023/01/12 04:51:05;;;;;;;21.88;6.28;;;4.30;99.90;;;;;;5070298;28;20499;-76
2023/01/12 04:53:31;;;;;;;25.10;6.60;;;4.20;99.90;;;;;;5094556;28;20044;-76
2023/01/12 04:55:57;;;;;;;14.68;5.13;;;4.30;99.90;;;;;;5090706;28;20368;-76
2023/01/12 04:58:23;;;;;;;15.95;6.15;;;4.20;99.90;;;;;;5095030;28;20043;-76
2023/01/12 05:00:48;;;;;;;16.73;5.85;;;4.10;99.90;;;;;;5088972;28;20383;-76
2023/01/12 05:03:15;;;;;;;14.25;5.95;;;4.10;99.90;;;;;;5097280;28;20040;-76
2023/01/12 05:05:40;;;;;;;22.90;5.85;;;4.10;99.90;;;;;;5066735;28;20024;-76
2023/01/12 05:10:53;;;;;;;20.20;5.90;;;4.00;99.90;;;;;;5087259;28;20020;-76
2023/01/12 05:13:20;;;;;;;17.70;5.88;;;4.00;99.90;;;;;;5077207;28;20040;-77
2023/01/12 05:15:46;;;;;;;19.88;7.45;;;3.90;99.90;;;;;;5087256;28;20164;-77
2023/01/12 05:18:11;;;;;;;18.75;5.88;;;3.90;99.90;;;;;;5096321;28;20035;-77
2023/01/12 05:20:37;;;;;;;22.88;8.60;;;3.90;99.90;;;;;;5075195;28;20086;-77
2023/01/12 05:23:03;;;;;;;15.48;6.60;;;3.80;99.90;;;;;;5096754;28;20032;-77
2023/01/12 05:25:31;;;;;;;12.18;6.38;;;3.80;99.90;;;;;;5076200;28;20075;-77
2023/01/12 05:27:57;;;;;;;20.55;6.78;;;3.70;99.90;;;;;;5078815;28;20052;-78
2023/01/12 05:30:27;;;;;;;18.35;7.00;;;3.70;99.90;;;;;;5072320;28;20066;-77
2023/01/12 05:32:53;;;;;;;21.90;8.10;;;3.70;99.90;;;;;;5096918;28;20093;-76
2023/01/12 05:35:19;;;;;;;16.60;6.80;;;3.70;99.90;;;;;;5087572;28;20085;-77
2023/01/12 05:37:45;;;;;;;14.63;6.97;;;3.60;99.90;;;;;;5079606;28;20596;-77
2023/01/12 05:40:11;;;;;;;17.08;7.55;;;3.60;99.90;;;;;;5073030;28;20464;-77
2023/01/12 05:45:22;;;;;;;16.42;6.55;;;3.60;99.90;;;;;;5088570;28;20077;-77
2023/01/12 05:48:08;;;;;;;22.33;6.40;;;3.50;99.90;;;;;;5088572;28;20021;-77
2023/01/12 05:50:35;;;;;;;18.73;7.10;;;3.50;99.90;;;;;;5086055;28;20037;-77
2023/01/12 05:53:00;;;;;;;15.23;6.25;;;3.50;99.90;;;;;;5078236;28;20012;-76
2023/01/12 05:55:26;;;;;;;19.70;6.15;;;3.50;99.90;;;;;;5060609;28;20032;-76
2023/01/12 05:57:52;;;;;;;16.75;7.75;;;3.50;99.90;;;;;;5097031;28;20098;-77
2023/01/12 06:00:18;;;;;;;20.73;7.60;;;3.50;99.90;;;;;;5073772;28;20103;-77
2023/01/12 06:02:44;;;;;;;15.75;6.50;;;3.50;99.90;;;;;;5093944;28;20020;-77
2023/01/12 06:05:09;;;;;;;16.13;6.07;;;3.50;99.90;;;;;;5073414;28;20032;-77
2023/01/12 06:07:36;;;;;;;13.32;6.13;;;3.40;99.90;;;;;;5090783;28;20023;-79
2023/01/12 06:10:02;;;;;;;21.20;6.72;;;3.40;99.90;;;;;;5081013;28;20028;-77
2023/01/12 06:15:12;;;;;;;29.92;7.00;;;3.40;99.90;;;;;;5079794;28;20048;-77
2023/01/12 06:17:38;;;;;;;17.50;6.47;;;3.40;99.90;;;;;;5079023;28;20017;-77
2023/01/12 06:20:05;;;;;;;24.38;7.28;;;3.40;99.90;;;;;;5079043;28;20488;-77
2023/01/12 06:22:31;;;;;;;21.35;6.75;;;3.30;99.90;;;;;;5061252;28;20107;-77
2023/01/12 06:24:56;;;;;;;17.73;6.78;;;3.30;99.90;;;;;;5078337;28;20063;-77
2023/01/12 06:27:22;;;;;;;20.33;7.25;;;3.20;99.90;;;;;;5076965;28;20024;-77
2023/01/12 06:29:48;;;;;;;18.65;6.60;;;3.20;99.90;;;;;;5064934;28;20088;-77
2023/01/12 06:32:14;;;;;;;17.30;8.32;;;3.20;99.90;;;;;;5063049;28;20028;-77
2023/01/12 06:34:39;;;;;;;13.80;7.55;;;3.20;99.90;;;;;;5079340;28;20031;-77
2023/01/12 06:37:07;;;;;;;13.95;7.78;;;3.20;99.90;;;;;;5060574;28;20077;-76
2023/01/12 06:39:33;;;;;;;25.00;9.50;;;3.30;99.90;;;;;;5064166;28;20029;-76
2023/01/12 06:44:43;;;;;;;17.70;8.70;;;3.40;99.90;;;;;;5077723;28;20035;-76
2023/01/12 06:47:09;;;;;;;15.15;8.55;;;3.30;99.90;;;;;;5084768;28;20032;-77
2023/01/12 06:49:35;;;;;;;16.73;9.27;;;3.30;99.90;;;;;;5075960;28;20024;-76
2023/01/12 06:52:01;;;;;;;22.48;9.40;;;3.30;99.90;;;;;;5070520;28;20024;-76
2023/01/12 06:54:26;;;;;;;15.75;9.77;;;3.30;99.90;;;;;;5075727;28;20095;-77
2023/01/12 06:56:54;;;;;;;22.13;9.85;;;3.30;99.90;;;;;;5070922;28;20039;-77
2023/01/12 06:59:20;;;;;;;68.88;27.35;;;3.40;99.90;;;;;;5091203;28;20080;-76
2023/01/12 07:01:46;;;;;;;83.00;40.35;;;3.40;99.90;;;;;;5076553;28;20039;-77
2023/01/12 07:04:12;;;;;;;47.47;18.15;;;3.40;99.90;;;;;;5084856;28;20033;-76
2023/01/12 07:06:37;;;;;;;46.15;18.38;;;3.40;99.90;;;;;;5086930;28;20025;-76
2023/01/12 07:09:04;;;;;;;19.77;9.43;;;3.30;99.90;;;;;;5084188;28;20471;-76
2023/01/12 07:11:30;;;;;;;27.67;11.00;;;3.30;99.90;;;;;;5087253;28;20020;-76
2023/01/12 07:13:56;;;;;;;18.40;8.15;;;3.20;99.90;;;;;;5085635;28;20048;-76
2023/01/12 07:16:22;;;;;;;22.60;7.65;;;3.20;99.90;;;;;;5067818;28;20032;-76
2023/01/12 07:18:48;;;;;;;23.13;9.63;;;3.30;99.90;;;;;;5082487;28;20105;-76
2023/01/12 07:21:15;;;;;;;14.75;8.65;;;3.40;99.90;;;;;;5083957;28;20032;-76
2023/01/12 07:23:42;;;;;;;61.00;29.55;;;3.40;99.90;;;;;;5081527;28;20108;-77
2023/01/12 07:26:09;;;;;;;195.77;85.30;;;3.40;99.90;;;;;;5063818;28;20035;-77
2023/01/12 07:28:36;;;;;;;20.00;7.43;;;3.30;99.90;;;;;;5063214;28;20400;-76
2023/01/12 07:31:04;;;;;;;13.90;6.65;;;3.30;99.90;;;;;;5083788;28;20027;-76
2023/01/12 07:33:30;;;;;;;19.23;7.70;;;3.30;99.90;;;;;;5080716;28;20024;-76
2023/01/12 07:36:00;;;;;;;534.30;235.98;;;3.20;99.90;;;;;;5081291;28;20056;-76
2023/01/12 07:38:26;;;;;;;;;;;3.20;99.90;;;;;;5080971;28;20032;-76
2023/01/12 07:40:52;;;;;;;23.45;12.27;;;3.20;99.90;;;;;;5089499;28;20267;-76
2023/01/12 07:43:18;;;;;;;191.13;73.30;;;3.20;99.90;;;;;;5066340;28;20116;-76
2023/01/12 07:45:44;;;;;;;190.77;68.55;;;3.20;99.90;;;;;;5087641;28;20021;-76
2023/01/12 07:48:10;;;;;;;77.78;33.55;;;3.20;99.90;;;;;;5070700;28;20024;-77
2023/01/12 07:50:36;;;;;;;42.80;22.35;;;3.20;99.90;;;;;;5087188;28;20032;-77
2023/01/12 07:53:02;;;;;;;29.92;13.70;;;3.20;99.90;;;;;;5087403;28;20021;-77
2023/01/12 07:55:30;;;;;;;93.15;46.35;;;3.20;99.90;;;;;;5069198;28;20020;-77
2023/01/12 07:57:57;;;;;;;81.22;42.85;;;3.20;99.90;;;;;;5088491;28;20372;-77
2023/01/12 08:00:24;;;;;;;46.35;24.85;;;3.30;99.90;;;;;;5068204;28;20626;-77
2023/01/12 08:02:52;;;;;;;29.95;18.40;;;3.40;99.90;;;;;;5069831;28;20025;-77
2023/01/12 08:05:18;;;;;;;13.38;8.27;;;3.40;99.90;;;;;;5080369;28;20107;-77
2023/01/12 08:07:44;;;;;;;14.80;8.70;;;3.40;99.90;;;;;;5062385;28;20427;-78
2023/01/12 08:10:11;;;;;;;22.58;11.35;;;3.40;99.90;;;;;;5087985;28;20023;-77
2023/01/12 08:12:37;;;;;;;24.45;8.48;;;3.50;99.90;;;;;;5085941;28;20056;-77
2023/01/12 08:15:04;;;;;;;19.48;9.23;;;3.50;99.90;;;;;;5091818;28;20020;-77
2023/01/12 08:17:34;;;;;;;77.10;41.42;;;3.70;99.90;;;;;;5090347;28;20427;-76
2023/01/12 08:20:04;;;;;;;68.80;28.50;;;3.70;99.90;;;;;;5070809;28;20028;-77
2023/01/12 08:22:37;;;;;;;248.97;94.77;;;3.90;99.90;;;;;;5071435;28;20258;-77
2023/01/12 08:25:08;;;;;;;74.90;34.20;;;4.00;99.90;;;;;;5088998;28;20073;-77
2023/01/12 08:27:38;;;;;;;66.00;32.22;;;4.00;99.90;;;;;;5070060;28;20069;-76
2023/01/12 08:30:07;;;;;;;47.53;24.30;;;4.10;99.90;;;;;;5089002;28;20699;-77
2023/01/12 08:32:35;;;;;;;42.78;21.20;;;4.10;99.90;;;;;;5086438;28;20057;-76
2023/01/12 08:35:03;;;;;;;48.35;21.70;;;4.20;99.90;;;;;;5068851;28;20025;-76
2023/01/12 08:37:31;;;;;;;48.55;23.65;;;4.20;99.90;;;;;;5089354;28;20028;-76
2023/01/12 08:39:57;;;;;;;150.00;59.97;;;4.20;99.90;;;;;;5085836;28;20040;-76
2023/01/12 08:42:26;;;;;;;157.68;72.60;;;4.30;99.90;;;;;;5088141;28;20384;-76
2023/01/12 08:44:52;;;;;;;148.20;65.30;;;4.40;99.90;;;;;;5085143;28;20392;-76
2023/01/12 08:47:25;;;;;;;97.40;58.35;;;4.40;99.90;;;;;;5084708;28;20025;-76
2023/01/12 08:49:52;;;;;;;88.70;58.35;;;4.40;99.90;;;;;;5070736;28;20032;-76
2023/01/12 08:52:17;;;;;;;92.95;67.75;;;4.40;99.90;;;;;;5087099;28;20460;-76
2023/01/12 08:54:43;;;;;;;98.03;56.42;;;4.40;99.90;;;;;;5072095;28;20048;-76
2023/01/12 08:57:09;;;;;;;145.57;98.13;;;4.40;99.90;;;;;;5087165;28;20024;-76
2023/01/12 08:59:35;;;;;;;173.15;115.20;;;4.40;99.90;;;;;;5088149;28;20549;-76
2023/01/12 09:02:04;;;;;;;153.60;105.40;;;4.40;99.90;;;;;;5083582;28;20064;-76
2023/01/12 09:04:29;;;;;;;78.63;53.72;;;4.40;99.90;;;;;;5070335;28;20047;-76
2023/01/12 09:06:55;;;;;;;78.45;49.47;;;4.40;99.90;;;;;;5085978;28;20032;-76
2023/01/12 09:09:21;;;;;;;73.18;45.35;;;4.50;99.90;;;;;;5087777;28;20070;-76
2023/01/12 09:11:48;;;;;;;55.80;36.88;;;4.50;99.90;;;;;;5081786;28;20020;-77
2023/01/12 09:14:15;;;;;;;45.25;31.95;;;4.50;99.90;;;;;;5083614;28;20028;-76
2023/01/12 09:16:41;;;;;;;40.97;27.15;;;4.50;99.90;;;;;;5084671;28;20056;-76
2023/01/12 09:19:07;;;;;;;40.38;24.15;;;4.50;99.90;;;;;;5085190;28;20955;-76
2023/01/12 09:21:37;;;;;;;39.33;23.98;;;4.60;99.90;;;;;;5084642;28;20021;-76
2023/01/12 09:24:04;;;;;;;41.30;29.08;;;4.70;99.90;;;;;;5068014;28;20032;-76
2023/01/12 09:26:35;;;;;;;36.92;22.48;;;4.80;99.90;;;;;;5086969;28;20032;-76
2023/01/12 09:29:03;;;;;;;28.20;19.55;;;4.90;99.90;;;;;;5086736;28;20430;-76
2023/01/12 09:31:30;;;;;;;29.52;17.15;;;5.10;99.90;;;;;;5067917;28;20057;-77
2023/01/12 09:33:56;;;;;;;29.63;17.77;;;5.20;99.90;;;;;;5086574;28;20465;-77
2023/01/12 09:36:25;;;;;;;28.35;14.82;;;5.30;99.90;;;;;;5065769;28;20055;-77
2023/01/12 09:38:51;;;;;;;24.80;12.25;;;5.50;99.90;;;;;;5091944;28;20025;-78
2023/01/12 09:41:17;;;;;;;28.20;13.15;;;5.60;99.90;;;;;;5088955;28;20035;-75
2023/01/12 09:49:20;;;;;;;20.77;11.68;;;6.00;99.90;;;;;;5080129;28;20483;-76
2023/01/12 09:52:29;;;;;;;14.48;10.60;;;6.10;99.90;;;;;;5080976;28;20023;-78
2023/01/12 09:54:55;;;;;;;19.23;10.00;;;6.10;99.90;;;;;;5084584;28;20021;-76
2023/01/12 09:57:33;;;;;;;20.15;10.95;;;6.20;99.90;;;;;;5086342;28;20031;-78
2023/01/12 10:00:08;;;;;;;21.30;10.23;;;6.40;99.90;;;;;;5072468;28;20488;-78
2023/01/12 10:02:36;;;;;;;14.27;9.45;;;6.50;99.90;;;;;;5094398;28;20077;-78
2023/01/12 10:05:12;;;;;;;16.95;9.23;;;6.60;99.90;;;;;;5074776;28;20031;-78
2023/01/12 10:07:38;;;;;;;17.45;9.65;;;6.70;99.90;;;;;;5095720;28;20043;-78
2023/01/12 10:10:05;;;;;;;23.42;9.25;;;6.70;99.90;;;;;;5074855;28;20522;-78
2023/01/12 10:12:41;;;;;;;13.65;8.13;;;6.90;99.90;;;;;;5097408;28;20522;-78
2023/01/12 10:15:22;;;;;;;16.67;7.95;;;7.00;99.90;;;;;;5077410;28;20035;-78
2023/01/12 10:18:18;;;;;;;17.60;9.27;;;7.10;99.90;;;;;;5087851;28;20024;-78
2023/01/12 10:20:44;;;;;;;18.48;8.23;;;7.20;99.90;;;;;;5088168;28;20035;-78
2023/01/12 10:23:15;;;;;;;11.60;7.00;;;7.20;99.90;;;;;;5078119;28;20031;-78
2023/01/12 10:25:46;;;;;;;15.93;6.72;;;7.30;99.90;;;;;;5066243;28;20024;-78
2023/01/12 10:28:32;;;;;;;;;;;7.30;99.90;;;;;;5077881;28;20043;-76
2023/01/12 10:30:58;;;;;;;16.00;6.93;;;7.50;99.90;;;;;;5087723;28;19988;-76
2023/01/12 10:33:27;;;;;;;14.77;6.72;;;7.60;99.90;;;;;;5095514;28;20585;-76
2023/01/12 10:36:09;;;;;;;15.60;7.20;;;7.70;99.90;;;;;;5090903;28;20107;-76
2023/01/12 10:38:51;;;;;;;21.70;8.73;;;7.70;99.90;;;;;;5094088;28;20078;-76
2023/01/12 10:41:22;;;;;;;16.30;6.90;;;7.80;99.90;;;;;;5078900;28;20034;-76
2023/01/12 10:43:53;;;;;;;;;;;7.80;99.90;;;;;;5090309;28;20028;-76
2023/01/12 10:46:22;;;;;;;15.70;7.38;;;7.90;99.90;;;;;;5081965;28;19904;-76
2023/01/12 10:48:50;;;;;;;12.25;6.97;;;7.90;99.90;;;;;;5088949;28;20036;-76
2023/01/12 10:51:32;;;;;;;11.10;5.53;;;7.90;99.90;;;;;;5071094;28;20074;-77
2023/01/12 10:54:09;;;;;;;9.95;5.05;;;7.90;99.90;;;;;;5093003;28;20032;-77
2023/01/12 10:56:42;;;;;;;11.55;5.43;;;8.00;99.90;;;;;;5070560;28;20131;-77
2023/01/12 10:59:11;;;;;;;13.05;5.53;;;8.00;99.90;;;;;;5089858;28;20531;-77
2023/01/12 11:02:03;;;;;;;21.60;5.03;;;8.10;99.90;;;;;;5085324;28;20115;-76
2023/01/12 11:04:30;;;;;;;16.20;4.95;;;8.30;99.90;;;;;;5082335;28;20031;-77
2023/01/12 11:07:07;;;;;;;10.20;4.90;;;8.40;99.90;;;;;;5079360;28;20020;-77
2023/01/12 11:09:32;;;;;;;9.00;4.20;;;8.60;99.90;;;;;;5080074;28;20036;-77
2023/01/12 11:12:01;;;;;;;9.55;4.03;;;8.90;99.90;;;;;;5094744;28;20044;-76
2023/01/12 11:14:38;;;;;;;5.10;3.60;;;9.10;99.90;;;;;;5080661;28;20115;-77
2023/01/12 11:17:10;;;;;;;9.95;4.57;;;9.20;99.90;;;;;;5097176;28;20410;-77
2023/01/12 11:19:40;;;;;;;13.05;4.00;;;9.30;99.90;;;;;;5094175;28;20028;-76
2023/01/12 11:22:17;;;;;;;;;;;9.50;99.90;;;;;;5096590;28;20012;-76
2023/01/12 11:24:46;;;;;;;6.15;3.30;;;9.60;99.90;;;;;;5078998;28;20008;-77
2023/01/12 11:27:15;;;;;;;6.50;3.45;;;9.70;99.90;;;;;;5078827;28;20395;-78
2023/01/12 11:29:51;;;;;;;9.93;3.35;;;9.80;99.90;;;;;;5093757;28;20025;-76
2023/01/12 11:32:38;;;;;;;8.88;3.55;;;9.90;99.90;;;;;;5097798;28;20486;-77
2023/01/12 11:35:38;;;;;;;9.85;3.33;;;9.90;99.90;;;;;;5093201;28;20548;-78
2023/01/12 11:38:16;;;;;;;14.77;3.38;;;10.10;99.90;;;;;;5098427;28;20031;-77
2023/01/12 11:40:43;;;;;;;13.73;3.88;;;10.20;99.90;;;;;;5096838;28;20084;-77
2023/01/12 11:43:48;;;;;;;11.82;3.72;;;10.30;99.90;;;;;;5090344;28;20020;-77
2023/01/12 11:46:18;;;;;;;11.68;4.15;;;10.40;99.90;;;;;;5086373;28;20024;-77
2023/01/12 11:49:04;;;;;;;14.90;3.50;;;10.60;99.90;;;;;;5096811;28;20028;-78
2023/01/12 11:51:30;;;;;;;8.23;3.80;;;10.80;99.90;;;;;;5090595;28;20042;-78
2023/01/12 11:53:56;;;;;;;9.23;3.58;;;10.80;99.90;;;;;;5095480;28;20145;-78
2023/01/12 11:56:40;;;;;;;9.77;3.22;;;11.00;99.90;;;;;;5092625;28;20524;-78
2023/01/12 11:59:35;;;;;;;6.82;3.00;;;11.10;99.90;;;;;;5080560;28;20499;-78
2023/01/12 12:02:19;;;;;;;10.70;3.90;;;11.20;99.90;;;;;;5099302;28;20027;-78
2023/01/12 12:05:02;;;;;;;5.20;3.50;;;11.30;99.90;;;;;;5089767;28;20086;-78
2023/01/12 12:07:36;;;;;;;7.13;3.08;;;11.30;99.90;;;;;;5081098;28;20518;-78
2023/01/12 12:10:20;;;;;;;7.55;3.35;;;11.40;99.90;;;;;;5091617;28;20028;-78
2023/01/12 12:12:45;;;;;;;6.03;3.63;;;11.50;99.90;;;;;;5072063;28;20051;-79
2023/01/12 12:15:41;;;;;;;15.02;4.13;;;11.40;99.90;;;;;;5081374;28;20028;-79
2023/01/12 12:18:39;;;;;;;13.73;3.50;;;11.40;99.90;;;;;;5097810;28;20059;-78
2023/01/12 12:21:33;;;;;;;22.23;4.25;;;11.20;99.90;;;;;;5089033;28;20115;-79
2023/01/12 12:24:26;;;;;;;12.55;4.05;;;11.20;99.90;;;;;;5074597;28;20032;-78
2023/01/12 12:27:15;;;;;;;9.68;3.40;;;11.10;99.90;;;;;;5081259;28;20058;-78
2023/01/12 12:30:15;;;;;;;14.88;3.53;;;11.10;99.90;;;;;;5078826;28;20545;-78
2023/01/12 12:32:58;;;;;;;13.73;3.83;;;11.00;99.90;;;;;;5077933;28;20042;-78
2023/01/12 12:36:12;;;;;;;11.25;4.45;;;10.90;99.90;;;;;;5095679;28;20020;-78
2023/01/12 12:38:48;;;;;;;13.52;4.43;;;10.90;99.90;;;;;;5085504;28;20042;-79
2023/01/12 12:47:47;;;;;;;13.38;5.18;;;11.10;99.90;;;;;;5098833;28;20051;-79
2023/01/12 12:50:28;;;;;;;17.10;3.55;;;11.10;99.90;;;;;;5084656;28;20028;-78
2023/01/12 12:53:21;;;;;;;11.10;3.15;;;11.20;99.90;;;;;;5079582;28;20031;-78
2023/01/12 12:55:49;;;;;;;12.27;3.92;;;11.10;99.90;;;;;;5073078;28;20039;-79
2023/01/12 12:58:21;;;;;;;11.02;4.18;;;11.20;99.90;;;;;;5078729;28;20025;-79
2023/01/12 13:00:49;;;;;;;14.48;4.80;;;11.20;99.90;;;;;;5091450;28;20036;-79
2023/01/12 13:03:40;;;;;;;12.13;3.92;;;11.10;99.90;;;;;;5094537;28;20024;-79
2023/01/12 13:06:10;;;;;;;;;;;11.20;99.90;;;;;;5088981;28;20028;-79
2023/01/12 13:08:37;;;;;;;21.98;4.05;;;11.20;99.90;;;;;;5096290;28;19980;-79
2023/01/12 13:11:04;;;;;;;13.40;4.65;;;11.10;99.90;;;;;;5091439;28;20042;-79
2023/01/12 13:13:36;;;;;;;16.60;4.53;;;11.20;99.90;;;;;;5096192;28;20076;-79
2023/01/12 13:16:17;;;;;;;10.05;3.40;;;11.20;99.90;;;;;;5089048;28;20047;-79
2023/01/12 13:19:05;;;;;;;14.02;3.55;;;11.10;99.90;;;;;;5085508;28;20059;-79
2023/01/12 13:21:55;;;;;;;18.30;5.40;;;11.10;99.90;;;;;;5095770;28;20024;-79
2023/01/12 13:24:28;;;;;;;15.17;4.93;;;11.10;99.90;;;;;;5078157;28;20503;-79
2023/01/12 13:26:56;;;;;;;11.95;4.10;;;11.10;99.90;;;;;;5077515;28;20471;-79
2023/01/12 13:29:22;;;;;;;17.42;3.38;;;11.10;99.90;;;;;;5093082;28;20035;-79
2023/01/12 13:31:51;;;;;;;13.75;3.83;;;11.10;99.90;;;;;;5095894;28;20024;-79
2023/01/12 13:34:35;;;;;;;15.27;4.47;;;11.00;99.90;;;;;;5077730;28;20031;-79
2023/01/12 13:37:27;;;;;;;22.13;5.43;;;11.00;99.90;;;;;;5092286;28;20028;-79
2023/01/12 13:40:10;;;;;;;10.80;3.42;;;11.00;99.90;;;;;;5074702;28;20396;-79
2023/01/12 13:45:23;;;;;;;11.82;3.47;;;11.00;99.90;;;;;;5085638;28;20395;-79
2023/01/12 13:47:53;;;;;;;8.23;3.47;;;11.10;99.90;;;;;;5098039;28;20054;-80
2023/01/12 13:50:24;;;;;;;9.25;3.67;;;11.10;99.90;;;;;;5069829;28;20479;-79